EKCH/CPH METAR and TAF weather

Enter ICAO airport designator
Station Type Date Time Source
EKCH METAR 2019/08/24 08:50 UTC NOAA

EKCH 240850Z AUTO 04004KT 360V080 9999 NCD 19/16 Q1027 NOSIG


Station Type Date Time Source
EKCH Decoded METAR 2019/08/24 08:50 UTC NOAA

Station name not available
Aug 24, 2019 - 04:50 AM EDT / 2019.08.24 0850 UTC
Wind: from the NE (040 degrees) at 5 MPH (4 KT) (direction variable):0
Visibility: greater than 7 mile(s):0
Temperature: 66 F (19 C)
Dew Point: 60 F (16 C)
Relative Humidity: 82%
Pressure (altimeter): 30.33 in. Hg (1027 hPa)
ob: EKCH 240850Z AUTO 04004KT 360V080 9999 NCD 19/16 Q1027 NOSIG
cycle: 9

Station Type Date Time Source
EKCH TAF 2019/08/24 06:31 UTC NOAA

TAF EKCH 240503Z 2406/2506 VRB02KT 9999 FEW040

Example: see airport list